Hauptseite
METAR-TAF:

METAR-TAF

Flughäfen :

Flughafen Larnaka

Larnaka, Zypern

Breite: 34-53N, Länge: 033-38E, Höhe: 2 m

Beobachtung

Neuester Wetterbericht von vor 37 Minuten, um 13:30 UTC
Wind 22 kt aus Nord
Temperatur 12°C
Luftfeuchtigkeit 38%
Luftdruck 1023 hPa
Sichtweite 10 km oder mehr
Leicht bewölkt in der Höhe von 3000 ft

METAR: LCLK 241330Z 35022KT 9999 FEW030 12/M02 Q1023 NOSIG

Zeit: 16:07 (14:07 UTC)

Prognose

Neuester Wetterbericht von vor 2 Stunden und 37 Minuten, um 11:30 UTC
Gültige Prognose vom 24 um 12 UTC bis 25 um 12 UTC
Wind 16 kt aus Nord/Nordost
Sichtweite 10 km oder mehr
Leicht bewölkt in der Höhe von 2000 ft
Übergehend zu
vom 24 um 15 UTC bis 24 um 19 UTC
Wind 9 kt aus Nord/Nordwest
Übergehend zu
vom 25 um 10 UTC bis 25 um 12 UTC
Wind 10 kt aus West/Südwest

TAF: LCLK 241130Z 2412/2512 02016KT 9999 FEW020 BECMG 2415/2419 33009KT BECMG 2510/2512 24010KT

Wetterbeobachtungen und Prognosen von mehr als 4000 Flughäfen (METAR und TAF Bericht).

Die verfügbaren Stationen werden durch gelbe und rote Markierungen auf der Karte dargestellt.

Führen Sie die Maus auf sie, um den Namen der Station zu sehen.

Darauf klicken, um die Beobachtung von Wetterbeobachtungen und Prognosen zu sehen.

Um die Karte zu ändern : klicken Sie auf den grünen Tasten mit einem schwarzen Kreuz Zum Vergrößern, auf den grünen Button mit einem Gedankenstrich zu verkleinern, oder auf die grünen Pfeile für benachbarte Karten.


METAR-TAF: